Terminal Aerodrome Forecast
Issued by NWS Melbourne, FL

Home | Current Version | Previous Version | Text Only | Print | Product List | Glossary On
Versions: 1 2 3 4 5 6 7 8 9 10 11 12
560
FTUS42 KMLB 181127
TAFMLB
TAF
KMLB 181127Z 1812/1912 24006KT P6SM FEW045 BKN250
     FM181800 27009KT P6SM SCT045 BKN250
     FM182000 11009KT P6SM FEW045
     FM190000 VRB04KT P6SM FEW045=

USA.gov is the U.S. government's official web portal to all federal, state and local government web resources and services.